Time;durP1;ratioP1;P1;durP2;ratioP2;P2;SDS_P1;SDS_P2;PMS_P1;PMS_P2;Temp;Humidity;BMP_temperature;BMP_pressure;BME280_temperature;BME280_humidity;BME280_pressure;Samples;Min_cycle;Max_cycle;Signal;HPM_P1;HPM_P2
2022/03/20 00:00:08;;;;;;;;;;;5.40;54.40;;;;;;5026788;28;20169;-61
2022/03/20 00:02:35;;;;;;;;;;;5.40;54.70;;;;;;5026574;28;19984;-63
2022/03/20 00:05:02;;;;;;;;;;;5.40;54.90;;;;;;5044319;28;19909;-62
2022/03/20 00:07:29;;;;;;;;;;;5.40;55.30;;;;;;5044159;28;19923;-62
2022/03/20 00:09:54;;;;;;;;;;;5.30;55.60;;;;;;5044572;28;19909;-63
2022/03/20 00:12:20;;;;;;;;;;;5.30;55.60;;;;;;5044105;28;20208;-63
2022/03/20 00:14:46;;;;;;;;;;;5.30;56.00;;;;;;5044498;28;19936;-63
2022/03/20 00:17:13;;;;;;;;;;;5.30;56.30;;;;;;5026458;28;19976;-63
2022/03/20 00:19:39;;;;;;;;;;;5.20;56.60;;;;;;5026713;28;19916;-63
2022/03/20 00:22:05;;;;;;;;;;;5.20;57.20;;;;;;5043681;28;19943;-62
2022/03/20 00:24:31;;;;;;;;;;;5.10;57.60;;;;;;5043897;28;19955;-63
2022/03/20 00:26:57;;;;;;;;;;;5.00;57.90;;;;;;5044150;28;20007;-62
2022/03/20 00:29:24;;;;;;;;;;;5.00;58.10;;;;;;5026068;28;19924;-63
2022/03/20 00:31:50;;;;;;;;;;;5.10;57.80;;;;;;5043716;28;19909;-63
2022/03/20 00:34:16;;;;;;;;;;;5.10;58.10;;;;;;5043406;28;20082;-62
2022/03/20 00:36:41;;;;;;;;;;;5.20;58.30;;;;;;5042585;28;19939;-63
2022/03/20 00:39:07;;;;;;;;;;;5.20;58.30;;;;;;5043556;28;19993;-63
2022/03/20 00:41:32;;;;;;;;;;;5.10;58.80;;;;;;5043272;28;19932;-63
2022/03/20 00:43:59;;;;;;;;;;;5.10;59.20;;;;;;5043610;28;19909;-63
2022/03/20 00:46:25;;;;;;;;;;;5.10;59.60;;;;;;5043563;28;19948;-64
2022/03/20 00:48:51;;;;;;;;;;;5.10;59.50;;;;;;5043477;28;20097;-63
2022/03/20 00:51:16;;;;;;;;;;;5.10;59.70;;;;;;5042916;28;19921;-63
2022/03/20 00:53:42;;;;;;;;;;;5.10;60.00;;;;;;5043317;28;20100;-62
2022/03/20 00:56:08;;;;;;;;;;;5.10;60.40;;;;;;5043379;28;19963;-61
2022/03/20 00:58:33;;;;;;;;;;;5.10;60.70;;;;;;5043293;28;20089;-62
2022/03/20 01:00:59;;;;;;;;;;;5.00;61.10;;;;;;5043090;28;19952;-63
2022/03/20 01:03:25;;;;;;;;;;;5.00;61.60;;;;;;5043095;28;19912;-63
2022/03/20 01:05:51;;;;;;;;;;;5.00;62.10;;;;;;5043078;28;19996;-62
2022/03/20 01:08:18;;;;;;;;;;;5.00;62.00;;;;;;5042827;28;19909;-63
2022/03/20 01:10:44;;;;;;;;;;;4.90;62.50;;;;;;5042828;28;19913;-63
2022/03/20 01:13:09;;;;;;;;;;;4.90;63.00;;;;;;5043094;28;19956;-63
2022/03/20 01:15:35;;;;;;;;;;;4.90;63.10;;;;;;5042993;28;19917;-63
2022/03/20 01:18:01;;;;;;;;;;;5.00;63.20;;;;;;5042975;28;20285;-62
2022/03/20 01:20:27;;;;;;;;;;;4.90;63.50;;;;;;5042942;28;19916;-60
2022/03/20 01:22:53;;;;;;;;;;;4.90;63.80;;;;;;5042595;28;20116;-61
2022/03/20 01:25:18;;;;;;;;;;;4.90;64.20;;;;;;5042862;28;20065;-61
2022/03/20 01:27:44;;;;;;;;;;;4.90;64.10;;;;;;5042893;28;19909;-63
2022/03/20 01:30:10;;;;;;;;;;;4.90;64.30;;;;;;5042901;28;20157;-63
2022/03/20 01:32:35;;;;;;;;;;;4.90;64.50;;;;;;5041990;28;19939;-62
2022/03/20 01:35:01;;;;;;;;;;;4.80;65.20;;;;;;5042506;28;19967;-62
2022/03/20 01:37:27;;;;;;;;;;;4.80;65.30;;;;;;5041801;28;19917;-62
2022/03/20 01:39:53;;;;;;;;;;;4.90;65.00;;;;;;5042814;28;19924;-63
2022/03/20 01:42:20;;;;;;;;;;;4.90;65.10;;;;;;5042357;28;19984;-62
2022/03/20 01:44:46;;;;;;;;;;;4.90;65.30;;;;;;5042555;28;19909;-62
2022/03/20 01:47:12;;;;;;;;;;;4.80;65.80;;;;;;5041871;28;19986;-63
2022/03/20 01:49:37;;;;;;;;;;;4.70;66.40;;;;;;5042395;28;19925;-63
2022/03/20 01:52:14;;;;;;;;;;;4.70;66.40;;;;;;5041918;28;19909;-63
2022/03/20 01:54:46;;;;;;;;;;;4.70;66.90;;;;;;5042366;28;19963;-63
2022/03/20 01:57:16;;;;;;;;;;;4.70;67.50;;;;;;5042375;28;20176;-63
2022/03/20 01:59:43;;;;;;;;;;;4.60;67.40;;;;;;5042146;28;19947;-63
2022/03/20 02:02:08;;;;;;;;;;;4.70;67.80;;;;;;5041798;28;19992;-63
2022/03/20 02:04:35;;;;;;;;;;;4.70;67.80;;;;;;5042054;28;19909;-63
2022/03/20 02:07:02;;;;;;;;;;;4.70;67.80;;;;;;5041701;28;20415;-63
2022/03/20 02:09:27;;;;;;;;;;;4.60;68.40;;;;;;5042130;28;20466;-63
2022/03/20 02:11:54;;;;;;;;;;;4.60;68.60;;;;;;5041647;28;19932;-64
2022/03/20 02:14:20;;;;;;;;;;;4.60;69.00;;;;;;5024033;28;20259;-62
2022/03/20 02:16:46;;;;;;;;;;;4.50;69.20;;;;;;5024093;28;19909;-63
2022/03/20 02:19:13;;;;;;;;;;;4.50;69.10;;;;;;5024454;28;20354;-63
2022/03/20 02:21:39;;;;;;;;;;;4.60;69.30;;;;;;5041211;28;19913;-63
2022/03/20 02:24:41;;;;;;;;;;;4.50;69.80;;;;;;5041798;28;19980;-63
2022/03/20 02:27:12;;;;;;;;;;;4.60;69.70;;;;;;5038370;28;19940;-63
2022/03/20 02:29:41;;;;;;;;;;;4.50;69.80;;;;;;5041949;28;20067;-62
2022/03/20 02:32:08;;;;;;;;;;;4.60;69.80;;;;;;5023961;28;19909;-62
2022/03/20 02:34:34;;;;;;;;;;;4.60;70.00;;;;;;5041447;28;19913;-62
2022/03/20 02:37:03;;;;;;;;;;;4.50;70.10;;;;;;5040686;28;19913;-62
2022/03/20 02:39:29;;;;;;;;;;;4.50;70.60;;;;;;5041636;28;19917;-62
2022/03/20 02:41:55;;;;;;;;;;;4.50;70.70;;;;;;5041175;28;20220;-63
2022/03/20 02:44:20;;;;;;;;;;;4.40;71.10;;;;;;5041533;28;19955;-62
2022/03/20 02:46:46;;;;;;;;;;;4.50;70.90;;;;;;5023974;28;19912;-62
2022/03/20 02:49:13;;;;;;;;;;;4.50;70.90;;;;;;5041531;28;19909;-63
2022/03/20 02:51:38;;;;;;;;;;;4.50;71.00;;;;;;5041162;28;20131;-62
2022/03/20 02:54:05;;;;;;;;;;;4.50;71.00;;;;;;5023619;28;19959;-63
2022/03/20 02:56:32;;;;;;;;;;;4.50;71.20;;;;;;5041476;28;20088;-62
2022/03/20 02:58:58;;;;;;;;;;;4.50;71.30;;;;;;5023510;28;19910;-63
2022/03/20 03:01:24;;;;;;;;;;;4.40;71.80;;;;;;5023384;28;19917;-63
2022/03/20 03:03:53;;;;;;;;;;;4.30;72.30;;;;;;5041330;28;19909;-63
2022/03/20 03:06:19;;;;;;;;;;;4.20;72.90;;;;;;5041499;28;19913;-62
2022/03/20 03:11:30;;;;;;;;;;;4.10;73.90;;;;;;5041176;28;19967;-63
2022/03/20 03:13:55;;;;;;;;;;;4.10;73.80;;;;;;5041213;28;19909;-63
2022/03/20 03:16:21;;;;;;;;;;;4.00;74.20;;;;;;5041260;28;19909;-62
2022/03/20 03:18:47;;;;;;;;;;;4.00;74.30;;;;;;5041093;28;19986;-63
2022/03/20 03:21:14;;;;;;;;;;;4.00;74.10;;;;;;5040947;28;19955;-63
2022/03/20 03:23:40;;;;;;;;;;;3.90;74.50;;;;;;5040859;28;19936;-63
2022/03/20 03:26:06;;;;;;;;;;;3.90;74.60;;;;;;5041247;28;19916;-63
2022/03/20 03:28:34;;;;;;;;;;;3.90;74.90;;;;;;5041191;28;19909;-63
2022/03/20 03:31:04;;;;;;;;;;;3.80;75.20;;;;;;5041071;28;19932;-63
2022/03/20 03:33:30;;;;;;;;;;;3.90;75.10;;;;;;5040172;28;20046;-62
2022/03/20 03:35:57;;;;;;;;;;;3.90;75.40;;;;;;5041371;28;19988;-63
2022/03/20 03:38:26;;;;;;;;;;;3.90;75.50;;;;;;5040842;28;19947;-62
2022/03/20 03:40:51;;;;;;;;;;;3.90;75.50;;;;;;5040037;28;19909;-63
2022/03/20 03:43:18;;;;;;;;;;;3.80;75.60;;;;;;5040717;28;19914;-63
2022/03/20 03:45:44;;;;;;;;;;;3.80;76.10;;;;;;5040902;28;19917;-63
2022/03/20 03:48:10;;;;;;;;;;;3.80;76.00;;;;;;5040782;28;20108;-62
2022/03/20 03:50:37;;;;;;;;;;;3.80;76.00;;;;;;5022997;28;19940;-63
2022/03/20 03:53:03;;;;;;;;;;;3.80;76.00;;;;;;5040977;28;19944;-63
2022/03/20 03:55:32;;;;;;;;;;;3.80;76.10;;;;;;5040854;28;19947;-63
2022/03/20 03:57:58;;;;;;;;;;;3.80;76.00;;;;;;5040114;28;19909;-62
2022/03/20 04:00:24;;;;;;;;;;;3.80;75.90;;;;;;5040817;28;20282;-62
2022/03/20 04:02:50;;;;;;;;;;;3.80;76.30;;;;;;5040408;28;20243;-63
2022/03/20 04:05:17;;;;;;;;;;;3.80;76.60;;;;;;5040784;28;20123;-63
2022/03/20 04:07:47;;;;;;;;;;;3.70;76.70;;;;;;5040362;28;19972;-62
2022/03/20 04:10:13;;;;;;;;;;;3.80;76.10;;;;;;5041056;28;20231;-62
2022/03/20 04:12:40;;;;;;;;;;;3.70;76.20;;;;;;5043963;28;20016;-63
2022/03/20 04:15:07;;;;;;;;;;;3.70;76.60;;;;;;5044360;28;19944;-63
2022/03/20 04:17:33;;;;;;;;;;;3.70;76.30;;;;;;5044355;28;19963;-63
2022/03/20 04:19:59;;;;;;;;;;;3.70;76.80;;;;;;5044349;28;19917;-63
2022/03/20 04:22:25;;;;;;;;;;;3.60;76.80;;;;;;5043897;28;20263;-62
2022/03/20 04:24:52;;;;;;;;;;;3.60;77.40;;;;;;5044293;28;19909;-63
2022/03/20 04:27:18;;;;;;;;;;;3.60;77.80;;;;;;5043957;28;20200;-62
2022/03/20 04:29:44;;;;;;;;;;;3.50;77.90;;;;;;5044147;28;19924;-63
2022/03/20 04:32:11;;;;;;;;;;;3.50;78.10;;;;;;5043777;28;19909;-63
2022/03/20 04:34:40;;;;;;;;;;;3.50;77.90;;;;;;5043375;28;20128;-62
2022/03/20 04:37:06;;;;;;;;;;;3.50;78.10;;;;;;5044080;28;19909;-62
2022/03/20 04:39:33;;;;;;;;;;;3.50;78.30;;;;;;5043994;28;20042;-63
2022/03/20 04:41:59;;;;;;;;;;;3.40;78.40;;;;;;5043723;28;19963;-62
2022/03/20 04:44:25;;;;;;;;;;;3.40;78.50;;;;;;5043631;28;19909;-62
2022/03/20 04:46:52;;;;;;;;;;;3.30;78.60;;;;;;5044039;28;20033;-63
2022/03/20 05:00:14;;;;;;;;;;;3.30;79.40;;;;;;5043373;28;19920;-62
2022/03/20 05:02:40;;;;;;;;;;;3.40;79.30;;;;;;5043056;28;20161;-63
2022/03/20 05:05:06;;;;;;;;;;;3.40;79.20;;;;;;5043529;28;20216;-63
2022/03/20 05:07:33;;;;;;;;;;;3.50;79.10;;;;;;5043701;28;19944;-63
2022/03/20 05:15:30;;;;;;;;;;;3.50;79.10;;;;;;5043636;28;19916;-62
2022/03/20 05:17:57;;;;;;;;;;;3.60;78.90;;;;;;5043804;28;19909;-62
2022/03/20 05:20:23;;;;;;;;;;;3.60;78.90;;;;;;5043583;28;19909;-62
2022/03/20 05:22:50;;;;;;;;;;;3.60;79.10;;;;;;5042164;28;20031;-63
2022/03/20 05:25:16;;;;;;;;;;;3.50;79.50;;;;;;5043169;28;19909;-64
2022/03/20 05:27:42;;;;;;;;;;;3.60;79.60;;;;;;5025312;28;19909;-64
2022/03/20 05:30:08;;;;;;;;;;;3.60;79.20;;;;;;5042924;28;19947;-64
2022/03/20 05:32:37;;;;;;;;;;;3.70;79.10;;;;;;5042580;28;19909;-62
2022/03/20 05:35:08;;;;;;;;;;;3.60;79.20;;;;;;5042554;28;19924;-64
2022/03/20 05:37:34;;;;;;;;;;;3.70;79.00;;;;;;5025067;28;19963;-63
2022/03/20 05:39:59;;;;;;;;;;;3.70;79.00;;;;;;5042350;28;19909;-64
2022/03/20 05:42:25;;;;;;;;;;;3.70;79.00;;;;;;5024767;28;20093;-62
2022/03/20 05:44:51;;;;;;;;;;;3.70;79.10;;;;;;5042343;28;19917;-62
2022/03/20 05:47:17;;;;;;;;;;;3.70;79.70;;;;;;5042836;28;20108;-62
2022/03/20 05:49:42;;;;;;;;;;;3.70;79.30;;;;;;5042733;28;19909;-64
2022/03/20 05:52:08;;;;;;;;;;;3.70;79.20;;;;;;5041586;28;19939;-63
2022/03/20 05:54:34;;;;;;;;;;;3.70;79.50;;;;;;5042728;28;19909;-63
2022/03/20 05:59:44;;;;;;;;;;;3.80;79.10;;;;;;5041801;28;19955;-63
2022/03/20 06:02:10;;;;;;;;;;;3.80;78.80;;;;;;5041972;28;19972;-63
2022/03/20 06:04:37;;;;;;;;;;;3.80;79.00;;;;;;5042235;28;19913;-63
2022/03/20 06:07:03;;;;;;;;;;;3.80;78.80;;;;;;5041997;28;20080;-63
2022/03/20 06:09:29;;;;;;;;;;;3.80;79.00;;;;;;5042184;28;19955;-64
2022/03/20 06:11:55;;;;;;;;;;;3.90;78.80;;;;;;5041879;28;19980;-63
2022/03/20 06:14:21;;;;;;;;;;;4.00;78.30;;;;;;5024286;28;20019;-63
2022/03/20 06:16:48;;;;;;;;;;;4.00;78.30;;;;;;5042148;28;20193;-63
2022/03/20 06:19:15;;;;;;;;;;;4.00;78.20;;;;;;5041869;28;19925;-63
2022/03/20 06:21:42;;;;;;;;;;;4.00;78.20;;;;;;5041302;28;19959;-63
2022/03/20 06:24:08;;;;;;;;;;;4.00;78.10;;;;;;5041738;28;20239;-62
2022/03/20 06:26:34;;;;;;;;;;;4.10;77.90;;;;;;5042010;28;19917;-63
2022/03/20 06:29:00;;;;;;;;;;;4.20;78.00;;;;;;5041783;28;19937;-62
2022/03/20 06:31:26;;;;;;;;;;;4.20;77.60;;;;;;5041334;28;19991;-63
2022/03/20 06:33:53;;;;;;;;;;;4.30;77.70;;;;;;5041017;28;19913;-63
2022/03/20 06:36:19;;;;;;;;;;;4.30;77.30;;;;;;5041494;28;19925;-63
2022/03/20 06:38:45;;;;;;;;;;;4.30;77.30;;;;;;5040330;28;19913;-63
2022/03/20 06:41:11;;;;;;;;;;;4.40;76.90;;;;;;5040770;28;19920;-62
2022/03/20 06:43:39;;;;;;;;;;;4.50;76.40;;;;;;5038022;28;19909;-61
2022/03/20 06:46:06;;;;;;;;;;;4.50;76.40;;;;;;5035330;28;19913;-62
2022/03/20 06:48:32;;;;;;;;;;;4.60;76.20;;;;;;5040401;28;20089;-62
2022/03/20 06:50:57;;;;;;;;;;;4.70;75.70;;;;;;5037413;28;19920;-63
2022/03/20 06:53:23;;;;;;;;;;;4.70;75.40;;;;;;5041119;28;20208;-62
2022/03/20 06:55:49;;;;;;;;;;;4.80;75.30;;;;;;5040988;28;19925;-62
2022/03/20 06:58:17;;;;;;;;;;;4.90;74.80;;;;;;5040946;28;19976;-62
2022/03/20 07:00:42;;;;;;;;;;;4.90;74.90;;;;;;5040508;28;20220;-63
2022/03/20 07:03:09;;;;;;;;;;;5.00;75.10;;;;;;5041318;28;19921;-63
2022/03/20 07:05:35;;;;;;;;;;;5.10;74.60;;;;;;5041116;28;19944;-62
2022/03/20 07:08:01;;;;;;;;;;;5.10;73.70;;;;;;5023290;28;19917;-62
2022/03/20 07:10:27;;;;;;;;;;;5.20;73.20;;;;;;5040838;28;19909;-62
2022/03/20 07:15:38;;;;;;;;;;;5.30;72.60;;;;;;5041141;28;20108;-62
2022/03/20 07:18:04;;;;;;;;;;;5.40;72.00;;;;;;5022305;28;19927;-62
2022/03/20 07:20:30;;;;;;;;;;;5.40;72.50;;;;;;5040859;28;19921;-63
2022/03/20 07:22:55;;;;;;;;;;;5.50;72.00;;;;;;5040985;28;19913;-61
2022/03/20 07:30:50;;;;;;;;;;;5.70;71.10;;;;;;5040501;28;20032;-61
2022/03/20 07:33:15;;;;;;;;;;;5.90;70.50;;;;;;5040956;28;20000;-61
2022/03/20 07:35:42;;;;;;;;;;;5.90;69.60;;;;;;5022974;28;19971;-63
2022/03/20 07:38:08;;;;;;;;;;;6.00;69.90;;;;;;5040145;28;19909;-62
2022/03/20 07:40:34;;;;;;;;;;;6.00;68.50;;;;;;5037475;28;20044;-61
2022/03/20 07:42:59;;;;;;;;;;;6.10;68.60;;;;;;5040587;28;20039;-62
2022/03/20 07:45:25;;;;;;;;;;;6.20;68.20;;;;;;5041190;28;19976;-62
2022/03/20 07:47:51;;;;;;;;;;;6.20;68.20;;;;;;5044660;28;20090;-62
2022/03/20 07:50:16;;;;;;;;;;;6.30;66.90;;;;;;5044339;28;19913;-62
2022/03/20 07:52:43;;;;;;;;;;;6.30;67.10;;;;;;5042883;28;19913;-62
2022/03/20 07:55:09;;;;;;;;;;;6.40;67.00;;;;;;5044229;28;19924;-62
2022/03/20 07:57:40;;;;;;;;;;;6.40;66.70;;;;;;5036373;28;20192;-62
2022/03/20 08:00:06;;;;;;;;;;;6.50;65.70;;;;;;5040132;28;19913;-63
2022/03/20 08:02:32;;;;;;;;;;;6.60;66.20;;;;;;5043288;28;19921;-63
2022/03/20 08:04:58;;;;;;;;;;;6.70;64.80;;;;;;5043540;28;20202;-61
2022/03/20 08:07:24;;;;;;;;;;;6.80;64.60;;;;;;5043531;28;19932;-63
2022/03/20 08:09:50;;;;;;;;;;;7.00;64.10;;;;;;5043704;28;20389;-62
2022/03/20 08:12:16;;;;;;;;;;;7.00;63.40;;;;;;5043618;28;19925;-63
2022/03/20 08:14:41;;;;;;;;;;;7.00;63.10;;;;;;5043789;28;19920;-63
2022/03/20 08:17:08;;;;;;;;;;;7.10;62.90;;;;;;5043946;28;19913;-63
2022/03/20 08:19:34;;;;;;;;;;;7.20;62.20;;;;;;5024939;28;20028;-63
2022/03/20 08:22:03;;;;;;;;;;;7.30;61.90;;;;;;5029496;28;19917;-63
2022/03/20 08:24:29;;;;;;;;;;;7.40;60.90;;;;;;5043143;28;19921;-62
2022/03/20 08:26:54;;;;;;;;;;;7.40;61.00;;;;;;5043753;28;19972;-63
2022/03/20 08:29:20;;;;;;;;;;;7.50;60.20;;;;;;5043828;28;20122;-64
2022/03/20 08:31:47;;;;;;;;;;;7.50;59.40;;;;;;5043572;28;19944;-63
2022/03/20 08:34:16;;;;;;;;;;;7.60;59.80;;;;;;5042670;28;19959;-62
2022/03/20 08:36:42;;;;;;;;;;;7.70;59.20;;;;;;5043574;28;19952;-64
2022/03/20 08:39:08;;;;;;;;;;;7.80;58.90;;;;;;5044639;28;20122;-63
2022/03/20 08:41:34;;;;;;;;;;;7.90;58.10;;;;;;5043395;28;19921;-63
2022/03/20 08:44:04;;;;;;;;;;;8.10;55.90;;;;;;5043616;28;19975;-63
2022/03/20 08:46:31;;;;;;;;;;;8.20;56.40;;;;;;5043824;28;20009;-63
2022/03/20 08:48:57;;;;;;;;;;;8.30;57.20;;;;;;5043732;28;20065;-63
2022/03/20 08:51:23;;;;;;;;;;;8.40;56.70;;;;;;5043281;28;20097;-64
2022/03/20 08:53:50;;;;;;;;;;;8.50;57.30;;;;;;5043297;28;19912;-62
2022/03/20 08:56:15;;;;;;;;;;;8.60;56.30;;;;;;5043128;28;20164;-62
2022/03/20 08:58:41;;;;;;;;;;;8.70;55.60;;;;;;5042878;28;20004;-63
2022/03/20 09:01:07;;;;;;;;;;;8.90;54.00;;;;;;5043321;28;20266;-63
2022/03/20 09:03:33;;;;;;;;;;;8.90;51.40;;;;;;5042775;28;19921;-63
2022/03/20 09:05:59;;;;;;;;;;;8.90;52.30;;;;;;5043227;28;19940;-63
2022/03/20 09:08:24;;;;;;;;;;;9.00;50.90;;;;;;5042909;28;19917;-63
2022/03/20 09:10:51;;;;;;;;;;;9.00;49.80;;;;;;5042609;28;19909;-62
2022/03/20 09:13:17;;;;;;;;;;;9.10;50.40;;;;;;5043039;28;19909;-63
2022/03/20 09:15:43;;;;;;;;;;;9.10;50.10;;;;;;5042866;28;19968;-63
2022/03/20 09:20:53;;;;;;;;;;;9.40;50.20;;;;;;5027740;28;19947;-62
2022/03/20 09:23:19;;;;;;;;;;;9.50;48.60;;;;;;5042713;28;19925;-62
2022/03/20 09:25:44;;;;;;;;;;;9.40;48.70;;;;;;5042450;28;19936;-62
2022/03/20 09:28:11;;;;;;;;;;;9.50;49.00;;;;;;5042930;28;19909;-63
2022/03/20 09:30:38;;;;;;;;;;;9.60;48.10;;;;;;5042281;28;19932;-63
2022/03/20 09:33:05;;;;;;;;;;;9.60;49.80;;;;;;5042701;28;20007;-63
2022/03/20 09:35:34;;;;;;;;;;;9.70;48.70;;;;;;5042504;28;20100;-62
2022/03/20 09:38:00;;;;;;;;;;;9.80;48.30;;;;;;5042703;28;20002;-62
2022/03/20 09:40:26;;;;;;;;;;;9.90;46.80;;;;;;5041915;28;19909;-62
2022/03/20 09:42:52;;;;;;;;;;;9.90;47.50;;;;;;5041975;28;20136;-62
2022/03/20 09:45:18;;;;;;;;;;;10.00;47.80;;;;;;5042324;28;20270;-62
2022/03/20 09:47:44;;;;;;;;;;;10.20;47.70;;;;;;5042592;28;19909;-62
2022/03/20 09:50:10;;;;;;;;;;;10.30;46.50;;;;;;5042511;28;19947;-62
2022/03/20 09:52:36;;;;;;;;;;;10.30;46.50;;;;;;5042015;28;19917;-62
2022/03/20 09:55:02;;;;;;;;;;;10.30;47.30;;;;;;5041892;28;19916;-62
2022/03/20 09:57:29;;;;;;;;;;;10.50;46.30;;;;;;5042195;28;19917;-62
2022/03/20 09:59:56;;;;;;;;;;;10.50;46.20;;;;;;5042101;28;19910;-63
2022/03/20 10:02:27;;;;;;;;;;;10.60;46.00;;;;;;5024093;28;19959;-62
2022/03/20 10:05:07;;;;;;;;;;;10.60;46.30;;;;;;5024544;28;19945;-63
2022/03/20 10:07:40;;;;;;;;;;;10.60;46.30;;;;;;5041796;28;19909;-63
2022/03/20 10:10:28;;;;;;;;;;;10.70;46.70;;;;;;5041456;28;19996;-63
2022/03/20 10:12:56;;;;;;;;;;;10.90;45.80;;;;;;5041153;28;19955;-62
2022/03/20 10:15:51;;;;;;;;;;;11.10;44.90;;;;;;5041916;28;19984;-63
2022/03/20 10:18:20;;;;;;;;;;;11.10;44.50;;;;;;5028782;28;19909;-63
2022/03/20 10:20:50;;;;;;;;;;;11.30;44.90;;;;;;5041263;28;19920;-61
2022/03/20 10:23:37;;;;;;;;;;;11.50;44.80;;;;;;5041707;28;19920;-63
2022/03/20 10:26:05;;;;;;;;;;;11.60;44.80;;;;;;5041599;28;19927;-62
2022/03/20 10:28:41;;;;;;;;;;;11.80;44.70;;;;;;5041621;28;19944;-62
2022/03/20 10:31:11;;;;;;;;;;;12.00;43.50;;;;;;5034675;28;20204;-63
2022/03/20 10:33:41;;;;;;;;;;;12.00;43.20;;;;;;5038174;28;19935;-63
2022/03/20 10:36:17;;;;;;;;;;;12.20;42.80;;;;;;5034813;28;19951;-62
2022/03/20 10:38:48;;;;;;;;;;;12.20;42.80;;;;;;5030593;28;20228;-62
2022/03/20 10:41:34;;;;;;;;;;;12.40;42.40;;;;;;5017976;28;19921;-63
2022/03/20 10:44:00;;;;;;;;;;;12.50;43.10;;;;;;5040229;28;19990;-62
2022/03/20 10:46:30;;;;;;;;;;;12.70;42.30;;;;;;5041165;28;20154;-62
2022/03/20 10:48:57;;;;;;;;;;;12.70;42.90;;;;;;5041364;28;20200;-62
2022/03/20 10:51:37;;;;;;;;;;;12.80;41.90;;;;;;5040781;28;20200;-62
2022/03/20 10:54:13;;;;;;;;;;;12.80;42.00;;;;;;5041201;28;19941;-62
2022/03/20 10:56:54;;;;;;;;;;;12.90;41.20;;;;;;5038747;28;19967;-62
2022/03/20 10:59:20;;;;;;;;;;;13.00;41.50;;;;;;5038645;28;19951;-62
2022/03/20 11:01:47;;;;;;;;;;;13.10;41.60;;;;;;5040878;28;19917;-63
2022/03/20 11:04:14;;;;;;;;;;;13.30;41.20;;;;;;5039489;28;20192;-64
2022/03/20 11:06:43;;;;;;;;;;;13.40;40.50;;;;;;5032925;28;19909;-65
2022/03/20 11:09:09;;;;;;;;;;;13.60;41.40;;;;;;5039816;28;19976;-64
2022/03/20 11:11:41;;;;;;;;;;;13.80;39.90;;;;;;5040282;28;19920;-66
2022/03/20 11:14:06;;;;;;;;;;;14.00;40.40;;;;;;5023268;28;19919;-64
2022/03/20 11:16:38;;;;;;;;;;;14.20;39.50;;;;;;5040971;28;20200;-64
2022/03/20 11:19:05;;;;;;;;;;;14.30;38.20;;;;;;5040622;28;19917;-66
2022/03/20 11:21:31;;;;;;;;;;;14.40;38.00;;;;;;5042979;28;19917;-65
2022/03/20 11:23:58;;;;;;;;;;;14.60;38.40;;;;;;5027286;28;19913;-64
2022/03/20 11:26:25;;;;;;;;;;;14.70;38.70;;;;;;5044032;28;19928;-65
2022/03/20 11:28:59;;;;;;;;;;;14.70;37.50;;;;;;5027339;28;19916;-66
2022/03/20 11:31:25;;;;;;;;;;;15.00;38.40;;;;;;5026935;28;19980;-66
2022/03/20 11:33:51;;;;;;;;;;;15.30;37.40;;;;;;5010499;28;20043;-66
2022/03/20 11:36:17;;;;;;;;;;;15.60;36.30;;;;;;5027022;28;19916;-65
2022/03/20 11:38:42;;;;;;;;;;;15.90;35.30;;;;;;5026993;28;19936;-66
2022/03/20 11:41:23;;;;;;;;;;;16.20;35.60;;;;;;5044392;28;20145;-66
2022/03/20 11:44:20;;;;;;;;;;;16.40;34.20;;;;;;5043797;28;19921;-66
2022/03/20 11:46:47;;;;;;;;;;;17.00;34.30;;;;;;5044783;28;19910;-66
2022/03/20 11:49:20;;;;;;;;;;;18.00;32.50;;;;;;5026879;28;20254;-67
2022/03/20 11:52:05;;;;;;;;;;;18.90;30.90;;;;;;5026653;28;19909;-66
2022/03/20 11:54:39;;;;;;;;;;;19.40;29.80;;;;;;5044565;28;19909;-66
2022/03/20 11:57:23;;;;;;;;;;;20.10;29.80;;;;;;5044601;28;19916;-65
2022/03/20 11:59:50;;;;;;;;;;;21.00;29.30;;;;;;5044502;28;20212;-65
2022/03/20 12:02:16;;;;;;;;;;;22.50;27.60;;;;;;5044114;28;19914;-66
2022/03/20 12:05:17;;;;;;;;;;;23.90;27.00;;;;;;5044434;28;20227;-65
2022/03/20 12:07:55;;;;;;;;;;;24.90;25.80;;;;;;5020441;28;19975;-66
2022/03/20 12:10:45;;;;;;;;;;;25.40;25.30;;;;;;5044410;28;19948;-65
2022/03/20 12:13:24;;;;;;;;;;;25.40;25.00;;;;;;5044300;28;19936;-65
2022/03/20 12:15:50;;;;;;;;;;;26.30;24.90;;;;;;5027216;28;19913;-65
2022/03/20 12:18:16;;;;;;;;;;;27.40;24.20;;;;;;5044032;28;20256;-66
2022/03/20 12:20:48;;;;;;;;;;;28.40;23.70;;;;;;5044061;28;19976;-63
2022/03/20 12:23:43;;;;;;;;;;;27.80;23.70;;;;;;5044087;28;19921;-64
2022/03/20 12:26:36;;;;;;;;;;;28.90;23.60;;;;;;5042185;28;19951;-64
2022/03/20 12:29:32;;;;;;;;;;;28.50;23.30;;;;;;5024244;28;19932;-65
2022/03/20 12:31:59;;;;;;;;;;;28.80;23.20;;;;;;5043304;28;19976;-66
2022/03/20 12:34:25;;;;;;;;;;;29.90;23.00;;;;;;5043620;28;19913;-68
2022/03/20 12:36:51;;;;;;;;;;;30.90;22.30;;;;;;5043414;28;20112;-68
2022/03/20 12:39:48;;;;;;;;;;;30.80;22.00;;;;;;5043751;28;19993;-68
2022/03/20 12:42:16;;;;;;;;;;;31.70;22.30;;;;;;5042893;28;19984;-70
2022/03/20 12:44:49;;;;;;;;;;;32.70;21.30;;;;;;5042117;28;20261;-68
2022/03/20 12:47:18;;;;;;;;;;;32.90;21.20;;;;;;5043548;28;19913;-64
2022/03/20 12:49:43;;;;;;;;;;;32.90;21.10;;;;;;5043312;28;19924;-64
2022/03/20 12:52:09;;;;;;;;;;;33.40;21.40;;;;;;5025328;28;19909;-67
2022/03/20 12:54:35;;;;;;;;;;;33.50;20.40;;;;;;5025743;28;20097;-68
2022/03/20 12:57:03;;;;;;;;;;;34.90;20.40;;;;;;5043256;28;19913;-65
2022/03/20 12:59:29;;;;;;;;;;;33.30;20.90;;;;;;5043022;28;19920;-68
2022/03/20 13:01:55;;;;;;;;;;;33.50;20.40;;;;;;5042948;28;19928;-67
2022/03/20 13:04:21;;;;;;;;;;;33.20;20.80;;;;;;5043226;28;19931;-66
2022/03/20 13:06:47;;;;;;;;;;;32.80;21.40;;;;;;5043470;28;19909;-66
2022/03/20 13:09:13;;;;;;;;;;;33.20;21.10;;;;;;5043339;28;19909;-64
2022/03/20 13:11:49;;;;;;;;;;;33.00;20.60;;;;;;5042651;28;19916;-65
2022/03/20 13:14:15;;;;;;;;;;;33.50;20.90;;;;;;5025031;28;19976;-67
2022/03/20 13:16:54;;;;;;;;;;;33.40;21.50;;;;;;5025428;28;19984;-66
2022/03/20 13:19:33;;;;;;;;;;;34.10;20.50;;;;;;5042019;28;19928;-65
2022/03/20 13:22:03;;;;;;;;;;;34.40;20.30;;;;;;5042773;28;20006;-66
2022/03/20 13:24:37;;;;;;;;;;;33.10;20.80;;;;;;5043176;28;19940;-65
2022/03/20 13:27:04;;;;;;;;;;;33.00;21.00;;;;;;5043285;28;19956;-64
2022/03/20 13:29:30;;;;;;;;;;;32.60;21.40;;;;;;5042741;28;19909;-63
2022/03/20 13:32:06;;;;;;;;;;;32.50;21.40;;;;;;5042710;28;19909;-64
2022/03/20 13:34:33;;;;;;;;;;;32.00;21.20;;;;;;5042501;28;20122;-61
2022/03/20 13:37:06;;;;;;;;;;;31.30;21.90;;;;;;5043081;28;20135;-62
2022/03/20 13:39:32;;;;;;;;;;;31.80;21.60;;;;;;5042515;28;19962;-63
2022/03/20 13:41:57;;;;;;;;;;;33.30;20.70;;;;;;5024103;28;19995;-62
2022/03/20 13:44:23;;;;;;;;;;;32.80;20.90;;;;;;5048105;28;19924;-62
2022/03/20 13:46:49;;;;;;;;;;;33.60;21.20;;;;;;5039914;28;19921;-62
2022/03/20 13:49:14;;;;;;;;;;;33.90;21.00;;;;;;5042128;28;19924;-66
2022/03/20 13:51:40;;;;;;;;;;;34.10;20.70;;;;;;5034199;28;19936;-66
2022/03/20 13:54:22;;;;;;;;;;;32.70;21.50;;;;;;5042715;28;19920;-67
2022/03/20 13:57:09;;;;;;;;;;;32.60;21.10;;;;;;5042429;28;19909;-68
2022/03/20 13:59:51;;;;;;;;;;;33.00;20.80;;;;;;5041454;28;19916;-68
2022/03/20 14:02:20;;;;;;;;;;;33.10;21.00;;;;;;5040815;28;19913;-65
2022/03/20 14:04:50;;;;;;;;;;;33.30;20.90;;;;;;5042115;28;19968;-69
2022/03/20 14:07:19;;;;;;;;;;;33.00;21.00;;;;;;5042343;28;19920;-66
2022/03/20 14:09:46;;;;;;;;;;;32.80;21.00;;;;;;5042320;28;20041;-66
2022/03/20 14:12:31;;;;;;;;;;;32.50;21.00;;;;;;5041902;28;19916;-64
2022/03/20 14:15:06;;;;;;;;;;;33.00;20.80;;;;;;5041688;28;19917;-64
2022/03/20 14:17:52;;;;;;;;;;;33.30;20.60;;;;;;5040641;28;19909;-65
2022/03/20 14:20:21;;;;;;;;;;;33.10;20.60;;;;;;5041849;28;19976;-66
2022/03/20 14:23:02;;;;;;;;;;;32.80;20.80;;;;;;5041512;28;20212;-66
2022/03/20 14:25:32;;;;;;;;;;;31.50;21.30;;;;;;5057309;28;20112;-66
2022/03/20 14:28:12;;;;;;;;;;;31.30;21.50;;;;;;5042092;28;20219;-66
2022/03/20 14:41:43;;;;;;;;;;;30.00;22.00;;;;;;5041699;28;19948;-65
2022/03/20 14:44:15;;;;;;;;;;;29.50;22.10;;;;;;5041182;28;19970;-66
2022/03/20 14:46:47;;;;;;;;;;;29.20;22.30;;;;;;5024164;28;19932;-65
2022/03/20 14:49:13;;;;;;;;;;;29.20;22.30;;;;;;5041361;28;20204;-62
2022/03/20 14:51:39;;;;;;;;;;;29.50;22.20;;;;;;5041142;28;19923;-63
2022/03/20 14:54:05;;;;;;;;;;;28.90;22.50;;;;;;5041305;28;19913;-64
2022/03/20 14:56:32;;;;;;;;;;;29.60;22.10;;;;;;5041265;28;20164;-64
2022/03/20 14:58:59;;;;;;;;;;;29.20;22.40;;;;;;5040959;28;20108;-66
2022/03/20 15:01:25;;;;;;;;;;;28.60;22.80;;;;;;5040761;28;19980;-66
2022/03/20 15:03:51;;;;;;;;;;;28.70;22.40;;;;;;5040850;28;19971;-64
2022/03/20 15:06:16;;;;;;;;;;;27.60;23.00;;;;;;5040664;28;19909;-64
2022/03/20 15:11:27;;;;;;;;;;;26.50;24.20;;;;;;5040723;28;19955;-61
2022/03/20 15:13:53;;;;;;;;;;;26.10;24.10;;;;;;5040642;28;19917;-61
2022/03/20 15:16:20;;;;;;;;;;;25.70;24.20;;;;;;5040807;28;19916;-61
2022/03/20 15:18:46;;;;;;;;;;;25.40;24.30;;;;;;5040769;28;20189;-62